createdAt,value
2017-01-01T09:26:46.964Z,-40
2017-01-01T09:27:27.718Z,-39.49
2017-01-01T09:28:08.357Z,-39.49
2017-01-01T09:28:49.063Z,-39.49
2017-01-01T09:29:29.632Z,-39.49
2017-01-01T09:30:10.372Z,-39.49
2017-01-01T09:30:51.076Z,-39.49
2017-01-01T09:31:31.777Z,-39.49
2017-01-01T09:32:12.343Z,-39.49
2017-01-01T09:32:52.996Z,-39.49
2017-01-01T09:33:33.743Z,-39.49
2017-01-01T09:34:14.390Z,-39.49
2017-01-01T09:34:55.068Z,-39.49
2017-01-01T09:35:36.122Z,-39.49
2017-01-01T09:36:16.862Z,-39.49
2017-01-01T09:36:57.519Z,-39.49
2017-01-01T09:37:38.077Z,-39.49
2017-01-01T09:38:18.743Z,-39.49
2017-01-01T09:38:59.418Z,-39.49
2017-01-01T09:39:40.123Z,-39.49
2017-01-01T09:40:20.677Z,-39.49
2017-01-01T09:41:01.344Z,-39.49
2017-01-01T09:41:42.049Z,-39.49
2017-01-01T09:42:22.785Z,-39.49
2017-01-01T09:43:03.437Z,-39.49
2017-01-01T09:43:44.088Z,-39.49
2017-01-01T09:44:24.746Z,-39.49
2017-01-01T09:45:05.397Z,-39.49
2017-01-01T09:45:46.046Z,-39.49
2017-01-01T09:46:26.699Z,-39.49
2017-01-01T09:47:07.414Z,-39.49
2017-01-01T09:47:48.061Z,-39.49
2017-01-01T09:48:28.727Z,-39.49
2017-01-01T09:49:09.387Z,-39.49
2017-01-01T09:49:50.138Z,-39.49
2017-01-01T09:50:30.789Z,-39.49
2017-01-01T09:51:11.439Z,-39.49
2017-01-01T09:51:52.134Z,-39.49
2017-01-01T09:52:32.833Z,-39.49
2017-01-01T09:53:13.413Z,-39.49
2017-01-01T09:53:54.095Z,-39.49
2017-01-01T09:54:34.786Z,-39.49
2017-01-01T09:55:15.366Z,-39.49
2017-01-01T09:55:56.104Z,-39.49
2017-01-01T09:56:36.801Z,-39.49
2017-01-01T09:57:17.452Z,-39.49
2017-01-01T09:57:58.119Z,-39.49
2017-01-01T09:58:38.873Z,-39.49
2017-01-01T09:59:19.527Z,-39.49
2017-01-01T10:00:00.275Z,-39.49
2017-01-01T10:00:41.032Z,-39.49
2017-01-01T10:01:21.679Z,-39.49
2017-01-01T10:02:02.367Z,-39.49
2017-01-01T10:02:43.107Z,-39.49
2017-01-01T10:03:23.849Z,-39.49
2017-01-01T10:04:04.499Z,-39.49
2017-01-01T10:04:45.065Z,-39.49
2017-01-01T10:05:25.755Z,-39.49
2017-01-01T10:06:06.422Z,-39.49
2017-01-01T10:06:47.186Z,-39.49
2017-01-01T10:07:27.924Z,-39.49
2017-01-01T10:08:08.698Z,-39.49
2017-01-01T10:08:49.426Z,-39.49
2017-01-01T10:09:30.195Z,-39.49
2017-01-01T10:10:10.963Z,-39.49
2017-01-01T10:10:51.708Z,-39.49
2017-01-01T10:11:32.370Z,-39.49
2017-01-01T10:12:13.044Z,-39.49
2017-01-01T10:12:53.751Z,-39.49
2017-01-01T10:13:34.322Z,-39.49
2017-01-01T10:14:15.074Z,-39.49
2017-01-01T10:14:55.772Z,-39.49
2017-01-01T10:15:36.462Z,-39.49
2017-01-01T10:16:17.025Z,-39.49
2017-01-01T10:16:57.790Z,-39.49
2017-01-01T10:17:38.544Z,-39.49
2017-01-01T10:18:19.288Z,-39.49
2017-01-01T10:18:59.983Z,-39.49
2017-01-01T10:19:40.647Z,-39.49
2017-01-01T10:20:21.401Z,-39.49
2017-01-01T10:21:02.044Z,-39.49
2017-01-01T10:21:42.748Z,-39.49
2017-01-01T10:22:23.328Z,-39.49
2017-01-01T10:23:04.995Z,-39.49
2017-01-01T10:23:45.689Z,-39.49
2017-01-01T10:24:26.383Z,-39.49
2017-01-01T10:25:06.946Z,-39.49
2017-01-01T10:25:47.705Z,-39.49
2017-01-01T10:26:28.267Z,-39.49
2017-01-01T10:27:09.001Z,-39.49
2017-01-01T10:27:49.747Z,-39.49
2017-01-01T10:28:30.319Z,-39.49
2017-01-01T10:29:11.078Z,-39.49
2017-01-01T10:29:51.810Z,-39.49
2017-01-01T10:30:32.377Z,-39.49
2017-01-01T10:31:12.949Z,-39.49
2017-01-01T10:31:53.613Z,-39.49
2017-01-01T10:32:34.279Z,-39.49
2017-01-01T10:33:15.037Z,-39.49
2017-01-01T10:33:56.666Z,-39.49
2017-01-01T10:34:37.314Z,-39.49
2017-01-01T10:35:22.585Z,-39.49
2017-01-01T10:36:03.239Z,-39.49
2017-01-01T10:36:43.889Z,-39.49
2017-01-01T10:37:25.532Z,-39.49
2017-01-01T10:38:08.235Z,-39.49
2017-01-01T10:38:48.883Z,-39.49
2017-01-01T10:39:29.538Z,-39.49
2017-01-01T10:40:12.220Z,-39.49
2017-01-01T10:40:52.867Z,-39.49
2017-01-01T10:41:33.521Z,-39.49
2017-01-01T10:42:14.179Z,-39.49
2017-01-01T10:42:54.825Z,-39.49
2017-01-01T10:43:35.579Z,-39.49
2017-01-01T10:44:16.239Z,-39.49
2017-01-01T10:44:56.887Z,-39.49
2017-01-01T10:45:37.455Z,-39.49
2017-01-01T10:46:18.115Z,-39.49
2017-01-01T10:46:59.717Z,-39.49
2017-01-01T10:47:41.341Z,-39.49
2017-01-01T10:48:21.912Z,-39.49
2017-01-01T10:49:03.575Z,-39.49
2017-01-01T10:49:44.276Z,-39.49
2017-01-01T10:50:24.982Z,-39.49
2017-01-01T10:51:05.532Z,-39.49
2017-01-01T10:51:46.185Z,-39.49
2017-01-01T10:52:26.905Z,-39.49
2017-01-01T10:53:07.593Z,-39.49
2017-01-01T10:53:48.155Z,-39.49
2017-01-01T10:54:28.795Z,-39.49
2017-01-01T10:55:09.357Z,-39.49
2017-01-01T10:55:50.010Z,-39.49
2017-01-01T10:56:30.714Z,-39.49
2017-01-01T10:57:11.406Z,-39.49
2017-01-01T10:57:51.962Z,-39.49
2017-01-01T10:58:32.623Z,-39.49
2017-01-01T10:59:13.312Z,-39.49
2017-01-01T10:59:54.017Z,-39.49
2017-01-01T11:00:34.591Z,-39.49
2017-01-01T11:01:15.166Z,-39.49
2017-01-01T11:01:55.886Z,-39.49
2017-01-01T11:02:36.537Z,-39.49
2017-01-01T11:03:17.192Z,-39.49
2017-01-01T11:03:58.863Z,-39.49
2017-01-01T11:04:39.529Z,-39.49
2017-01-01T11:05:21.194Z,-39.49
2017-01-01T11:06:01.747Z,-39.49
2017-01-01T11:06:42.496Z,-39.49
2017-01-01T11:07:27.767Z,-39.49
2017-01-01T11:08:09.456Z,-39.49
2017-01-01T11:08:50.093Z,-39.49
2017-01-01T11:09:30.757Z,-39.49
2017-01-01T11:10:11.414Z,-39.49
2017-01-01T11:10:52.059Z,-39.49
2017-01-01T11:11:32.713Z,-39.49
2017-01-01T11:12:13.376Z,-39.49
2017-01-01T14:14:05.149Z,-40
2017-01-01T14:14:45.784Z,-39.49
2017-01-01T14:15:26.355Z,-39.49
2017-01-01T15:06:31.367Z,17.02
2017-01-01T15:07:12.997Z,16.78
2017-01-01T15:07:54.563Z,16.54
2017-01-01T15:08:35.077Z,16.2
2017-01-01T15:09:15.723Z,15.94
2017-01-01T15:09:56.315Z,15.94
2017-01-01T15:10:36.819Z,15.57
2017-01-01T15:11:17.435Z,14
2017-01-01T15:11:58.166Z,12.15
2017-01-01T15:14:26.989Z,7
2017-01-01T15:15:07.519Z,5.91
2017-01-01T15:15:48.077Z,5.14
2017-01-01T15:29:55.984Z,7.32
2017-01-01T15:30:36.585Z,6.52
2017-01-01T15:31:17.229Z,5.8
2017-01-01T15:31:57.795Z,5.14
2017-01-01T15:32:38.461Z,4.55
2017-01-01T15:33:19.092Z,3.96
2017-01-01T15:33:59.761Z,3.56
2017-01-01T15:34:40.428Z,3.23
2017-01-01T15:35:22.099Z,2.92
2017-01-01T15:36:02.773Z,2.74
2017-01-01T15:36:43.404Z,2.54
2017-01-01T15:37:24.043Z,2.31
2017-01-01T15:38:04.735Z,2.2
2017-01-01T15:38:45.361Z,2.18
2017-01-01T15:39:26.002Z,2.1
2017-01-01T15:40:06.657Z,2.06
2017-01-01T15:40:47.318Z,1.87
2017-01-01T15:41:27.975Z,1.81
2017-01-01T15:42:08.615Z,1.76
2017-01-01T15:42:49.194Z,1.7
2017-01-01T15:43:29.762Z,1.7
2017-01-01T15:44:10.358Z,1.68
2017-01-01T15:44:50.922Z,1.71
2017-01-01T15:45:31.575Z,1.66
2017-01-01T15:46:12.167Z,1.7
2017-01-01T15:46:52.768Z,1.73
2017-01-01T15:47:33.344Z,1.68
2017-01-01T15:48:13.990Z,1.7
2017-01-01T15:48:54.648Z,1.66
2017-01-01T15:49:35.297Z,1.73
2017-01-01T15:50:15.955Z,1.6
2017-01-01T15:50:56.603Z,1.68
2017-01-01T15:51:37.260Z,1.59
2017-01-01T15:52:17.927Z,1.59
2017-01-01T15:52:58.556Z,1.63
2017-01-01T15:53:39.201Z,1.56
2017-01-01T15:54:19.865Z,1.59
2017-01-01T15:55:00.523Z,1.53
2017-01-01T15:55:41.173Z,1.59
2017-01-01T15:56:21.814Z,1.6
2017-01-01T15:57:02.453Z,1.67
2017-01-01T15:57:43.104Z,1.66
2017-01-01T15:58:23.761Z,1.71
2017-01-01T15:59:04.411Z,1.68
2017-01-01T15:59:45.065Z,1.7
2017-01-01T16:00:25.716Z,1.73
2017-01-01T16:01:06.374Z,1.78
2017-01-01T16:01:47.028Z,1.81
2017-01-01T16:02:27.599Z,1.74
2017-01-01T16:03:08.243Z,1.76
2017-01-01T16:03:48.902Z,1.8
2017-01-01T16:04:29.563Z,1.76
2017-01-01T16:05:10.237Z,1.88
2017-01-01T16:05:50.851Z,1.92
2017-01-01T16:06:31.591Z,1.89
2017-01-01T16:07:12.277Z,1.89
2017-01-01T16:07:52.858Z,1.87
2017-01-01T16:08:33.454Z,1.91
2017-01-01T16:09:14.552Z,1.87
2017-01-01T16:09:55.350Z,1.73
2017-01-01T16:10:35.979Z,1.76
2017-01-01T16:11:16.820Z,1.76
2017-01-01T16:11:57.872Z,1.85
2017-01-01T16:12:38.568Z,1.81
2017-01-01T16:13:19.167Z,1.84
2017-01-01T16:13:59.831Z,1.84
2017-01-01T16:14:40.473Z,1.81
2017-01-01T16:15:21.129Z,1.92
2017-01-01T16:16:01.780Z,1.88
2017-01-01T16:16:42.435Z,1.85
2017-01-01T16:17:23.118Z,1.91
2017-01-01T16:18:03.775Z,1.85
2017-01-01T16:18:44.390Z,1.88
2017-01-01T16:19:24.964Z,1.95
2017-01-01T16:20:06.040Z,1.95
2017-01-01T16:20:46.701Z,1.84
2017-01-01T16:21:30.667Z,1.84
2017-01-01T16:22:10.726Z,1.92
2017-01-01T16:22:51.356Z,1.85
2017-01-01T16:23:32.037Z,1.8
2017-01-01T16:24:12.613Z,1.87
2017-01-01T16:24:53.192Z,1.87
2017-01-01T16:25:33.892Z,1.89
2017-01-01T16:26:14.488Z,1.89
2017-01-01T16:26:55.047Z,1.85
2017-01-01T16:27:35.716Z,1.89
2017-01-01T16:28:16.397Z,1.89
2017-01-01T16:28:56.989Z,1.87
2017-01-01T16:29:37.573Z,1.87
2017-01-01T16:30:18.218Z,1.81
2017-01-01T16:30:58.810Z,1.71
2017-01-01T16:31:39.400Z,1.81
2017-01-01T16:32:19.983Z,1.85
2017-01-01T16:33:00.632Z,1.7
2017-01-01T16:33:41.215Z,1.73
2017-01-01T16:34:21.922Z,1.71
2017-01-01T16:35:02.509Z,1.85
2017-01-01T16:35:43.223Z,1.84
2017-01-01T16:36:23.823Z,1.81
2017-01-01T16:37:04.424Z,1.73
2017-01-01T16:37:45.074Z,1.8
2017-01-01T16:38:25.653Z,1.84
2017-01-01T16:39:06.335Z,1.84
2017-01-01T16:39:46.991Z,1.84
2017-01-01T16:40:27.637Z,1.8
2017-01-01T16:41:08.289Z,1.84
2017-01-01T16:41:48.943Z,1.87
2017-01-01T16:42:29.517Z,1.8
2017-01-01T16:43:10.111Z,1.81
2017-01-01T16:43:50.739Z,1.78
2017-01-01T16:44:31.324Z,1.74
2017-01-01T16:45:11.967Z,1.85
2017-01-01T16:45:52.600Z,1.71
2017-01-01T16:46:33.181Z,1.81
2017-01-01T16:47:13.831Z,1.71
2017-01-01T16:47:54.457Z,1.8
2017-01-01T16:48:35.040Z,1.73
2017-01-01T16:49:15.677Z,1.84
2017-01-01T16:49:56.314Z,1.78
2017-01-01T16:50:36.883Z,1.71
2017-01-01T16:51:17.544Z,1.81
2017-01-01T16:51:58.251Z,1.8
2017-01-01T16:52:38.827Z,1.84
2017-01-01T16:53:19.481Z,1.81
2017-01-01T16:54:00.130Z,1.85
2017-01-01T16:54:40.783Z,1.85
2017-01-01T16:55:21.436Z,1.8
2017-01-01T16:56:02.097Z,1.89
2017-01-01T16:56:42.744Z,1.81
2017-01-01T16:57:23.318Z,1.81
2017-01-01T16:58:03.973Z,1.81
2017-01-01T16:58:44.608Z,1.73
2017-01-01T16:59:25.266Z,1.8
2017-01-01T17:00:05.930Z,1.77
2017-01-01T17:00:46.573Z,1.81
2017-01-01T17:01:27.228Z,1.77
2017-01-01T17:02:07.880Z,1.74
2017-01-01T17:02:48.467Z,1.74
2017-01-01T17:03:29.075Z,1.73
2017-01-01T17:04:09.653Z,1.81
2017-01-01T17:04:50.288Z,1.8
2017-01-01T17:05:30.881Z,1.76
2017-01-01T17:06:11.473Z,1.8
2017-01-01T17:06:52.052Z,1.8
2017-01-01T17:07:32.699Z,1.76
2017-01-01T17:08:13.362Z,1.7
2017-01-01T17:08:54.079Z,1.7
2017-01-01T17:09:34.664Z,1.68
2017-01-01T17:10:15.302Z,1.76
2017-01-01T17:10:55.979Z,1.74
2017-01-01T17:11:36.611Z,1.78
2017-01-01T17:12:17.274Z,1.8
2017-01-01T17:12:57.874Z,1.67
2017-01-01T17:13:38.464Z,1.78
2017-01-01T17:14:19.038Z,1.78
2017-01-01T17:14:59.781Z,1.81
2017-01-01T17:15:40.594Z,1.74
2017-01-01T17:16:21.205Z,1.74
2017-01-01T17:17:01.778Z,1.78
2017-01-01T17:17:42.405Z,1.63
2017-01-01T17:18:23.034Z,1.74
2017-01-01T17:19:03.580Z,1.71
2017-01-01T17:19:44.267Z,1.67
2017-01-01T17:20:24.835Z,1.7
2017-01-01T17:21:05.507Z,1.7
2017-01-01T17:21:46.084Z,1.68
2017-01-01T17:22:26.812Z,1.73
2017-01-01T17:23:07.453Z,1.68
2017-01-01T17:23:48.044Z,1.62
2017-01-01T17:24:28.631Z,1.67
2017-01-01T17:25:09.281Z,1.63
2017-01-01T17:25:49.965Z,1.67
2017-01-01T17:26:30.562Z,1.66
2017-01-01T17:27:11.132Z,1.6
2017-01-01T17:27:51.782Z,1.7
2017-01-01T17:28:32.448Z,1.63
2017-01-01T17:29:13.072Z,1.67
2017-01-01T17:29:53.753Z,1.63
2017-01-01T17:30:34.405Z,1.66
2017-01-01T17:31:15.032Z,1.7
2017-01-01T17:31:55.599Z,1.67
2017-01-01T17:32:36.265Z,1.67
2017-01-01T17:33:17.912Z,1.63
2017-01-01T17:33:58.472Z,1.66
2017-01-01T17:34:39.123Z,1.62
2017-01-01T17:35:19.717Z,1.53
2017-01-01T17:36:00.300Z,1.55
2017-01-01T17:36:40.897Z,1.56
2017-01-01T17:37:21.522Z,1.56
2017-01-01T17:38:02.174Z,1.56
2017-01-01T17:38:42.828Z,1.53
2017-01-01T17:39:23.479Z,1.56
2017-01-01T17:40:04.140Z,1.56
2017-01-01T17:40:44.782Z,1.59
2017-01-01T17:41:25.441Z,1.62
2017-01-01T17:42:06.100Z,1.62
2017-01-01T17:42:46.746Z,1.62
2017-01-01T17:43:27.400Z,1.59
2017-01-01T17:44:08.053Z,1.7
2017-01-01T17:44:48.703Z,1.59
2017-01-01T17:45:29.354Z,1.7
2017-01-01T17:46:10.011Z,1.59
2017-01-01T17:46:50.664Z,1.55
2017-01-01T17:47:31.230Z,1.7
2017-01-01T17:48:11.802Z,1.62
2017-01-01T17:48:52.464Z,1.63
2017-01-01T17:49:33.078Z,1.7
2017-01-01T17:50:13.743Z,1.68
2017-01-01T17:50:54.398Z,1.63
2017-01-01T17:51:35.053Z,1.71
2017-01-01T17:52:15.688Z,1.66
2017-01-01T17:52:56.372Z,1.74
2017-01-01T17:53:38.034Z,1.63
2017-01-01T17:54:18.696Z,1.67
2017-01-01T17:54:59.330Z,1.6
2017-01-01T17:55:39.995Z,1.59
2017-01-01T17:56:20.648Z,1.67
2017-01-01T17:57:01.303Z,1.63
2017-01-01T17:57:41.948Z,1.63
2017-01-01T17:58:22.580Z,1.66
2017-01-01T17:59:03.129Z,1.67
2017-01-01T17:59:43.809Z,1.7
2017-01-01T18:00:24.453Z,1.68
2017-01-01T18:01:05.119Z,1.56
2017-01-01T18:01:46.794Z,1.67
2017-01-01T18:02:27.449Z,1.66
2017-01-01T18:03:08.098Z,1.73
2017-01-01T18:03:48.751Z,1.71
2017-01-01T18:04:29.404Z,1.67
2017-01-01T18:05:10.053Z,1.68
2017-01-01T18:05:50.843Z,1.68
2017-01-01T18:06:31.358Z,1.59
2017-01-01T18:07:13.029Z,1.58
2017-01-01T18:07:53.694Z,1.6
2017-01-01T18:08:34.363Z,1.67
2017-01-01T18:09:15.000Z,1.63
2017-01-01T18:09:55.655Z,1.53
2017-01-01T18:10:36.294Z,1.62
2017-01-01T18:11:16.956Z,1.6
2017-01-01T18:11:57.605Z,1.5
2017-01-01T18:12:38.263Z,1.52
2017-01-01T18:13:18.909Z,1.6
2017-01-01T18:13:59.575Z,1.52
2017-01-01T18:14:40.287Z,1.63
2017-01-01T18:15:20.893Z,1.58
2017-01-01T18:16:01.523Z,1.66
2017-01-01T18:16:42.169Z,1.53
2017-01-01T18:17:22.804Z,1.62
2017-01-01T18:18:03.381Z,1.59
2017-01-01T18:18:44.040Z,1.56
2017-01-01T18:19:24.717Z,1.6
2017-01-01T18:20:05.326Z,1.53
2017-01-01T18:20:45.960Z,1.56
2017-01-01T18:21:26.620Z,1.59
2017-01-01T18:22:07.282Z,1.56
2017-01-01T18:22:47.979Z,1.53
2017-01-01T18:23:28.652Z,1.56
2017-01-01T18:24:09.329Z,1.56
2017-01-01T18:24:49.890Z,1.66
2017-01-01T18:25:30.473Z,1.56
2017-01-01T18:26:11.067Z,1.59
2017-01-01T18:26:51.636Z,1.59
2017-01-01T18:27:32.287Z,1.59
2017-01-01T18:28:12.875Z,1.6
2017-01-01T18:28:53.467Z,1.55
2017-01-01T18:29:34.049Z,1.59
2017-01-01T18:30:14.709Z,1.58
2017-01-01T18:30:55.274Z,1.55
2017-01-01T18:31:35.926Z,1.59
2017-01-01T18:32:16.531Z,1.55
2017-01-01T18:32:57.084Z,1.56
2017-01-01T18:33:37.741Z,1.56
2017-01-01T18:34:18.344Z,1.52
2017-01-01T18:34:58.934Z,1.56
2017-01-01T18:35:39.585Z,1.53
2017-01-01T18:36:20.159Z,1.58
2017-01-01T18:37:00.855Z,1.59
2017-01-01T18:37:41.441Z,1.52
2017-01-01T18:38:21.994Z,1.5
2017-01-01T18:39:02.679Z,1.55
2017-01-01T18:39:43.370Z,1.58
2017-01-01T18:40:23.959Z,1.52
2017-01-01T18:41:04.538Z,1.53
2017-01-01T18:41:45.157Z,1.6
2017-01-01T18:42:25.777Z,1.59
2017-01-01T18:43:06.366Z,1.63
2017-01-01T18:43:46.924Z,1.53
2017-01-01T18:44:29.515Z,1.59
2017-01-01T18:45:10.192Z,1.58
2017-01-01T18:45:50.841Z,1.53
2017-01-01T18:46:31.470Z,1.63
2017-01-01T18:47:12.040Z,1.6
2017-01-01T18:47:52.693Z,1.58
2017-01-01T18:48:33.390Z,1.59
2017-01-01T18:49:13.983Z,1.62
2017-01-01T18:49:54.554Z,1.56
2017-01-01T18:50:35.208Z,1.56
2017-01-01T18:51:15.786Z,1.56
2017-01-01T18:51:56.384Z,1.55
2017-01-01T18:52:36.984Z,1.52
2017-01-01T18:53:17.612Z,1.52
2017-01-01T18:53:58.258Z,1.5
2017-01-01T18:54:38.885Z,1.52
2017-01-01T18:55:19.565Z,1.59
2017-01-01T18:56:00.212Z,1.53
2017-01-01T18:56:40.797Z,1.5
2017-01-01T18:57:21.451Z,1.52
2017-01-01T18:58:02.108Z,1.53
2017-01-01T18:58:42.698Z,1.5
2017-01-01T18:59:23.307Z,1.53
2017-01-01T19:00:03.965Z,1.56
2017-01-01T19:00:44.612Z,1.55
2017-01-01T19:01:25.268Z,1.55
2017-01-01T19:02:05.914Z,1.49
2017-01-01T19:02:46.515Z,1.5
2017-01-01T19:03:27.121Z,1.52
2017-01-01T19:04:07.732Z,1.52
2017-01-01T19:04:48.458Z,1.53
2017-01-01T19:05:29.132Z,1.53
2017-01-01T19:06:09.699Z,1.55
2017-01-01T19:06:50.357Z,1.52
2017-01-01T19:07:30.950Z,1.56
2017-01-01T19:08:11.603Z,1.53
2017-01-01T19:08:52.241Z,1.53
2017-01-01T19:09:32.916Z,1.55
2017-01-01T19:10:13.553Z,1.55
2017-01-01T19:10:54.198Z,1.53
2017-01-01T19:11:34.852Z,1.53
2017-01-01T19:12:15.513Z,1.52
2017-01-01T19:12:56.080Z,1.58
2017-01-01T19:13:36.707Z,1.53
2017-01-01T19:14:17.404Z,1.56
2017-01-01T19:14:57.973Z,1.53
2017-01-01T19:15:38.657Z,1.55
2017-01-01T19:16:19.324Z,1.5
2017-01-01T19:16:59.924Z,1.52
2017-01-01T19:17:40.493Z,1.53
2017-01-01T19:18:21.140Z,1.52
2017-01-01T19:19:01.784Z,1.49
2017-01-01T19:19:42.394Z,1.52
2017-01-01T19:20:23.151Z,1.5
2017-01-01T19:21:04.645Z,1.5
2017-01-01T19:21:45.620Z,1.55
2017-01-01T19:22:26.438Z,1.52
2017-01-01T19:23:07.238Z,1.55
2017-01-01T19:23:47.835Z,1.52
2017-01-01T19:24:28.398Z,1.5
2017-01-01T19:25:09.044Z,1.55
2017-01-01T19:25:49.640Z,1.52
2017-01-01T19:26:30.202Z,1.59
2017-01-01T19:27:10.856Z,1.5
2017-01-01T19:27:51.446Z,1.53
2017-01-01T19:28:32.097Z,1.55
2017-01-01T19:29:12.749Z,1.5
2017-01-01T19:29:53.400Z,1.55
2017-01-01T19:30:34.054Z,1.56
2017-01-01T19:31:14.707Z,1.5
2017-01-01T19:31:55.362Z,1.49
2017-01-01T19:32:36.015Z,1.58
2017-01-01T19:33:16.621Z,1.52
2017-01-01T19:33:57.235Z,1.52
2017-01-01T19:34:37.825Z,1.53
2017-01-01T19:35:18.432Z,1.55
2017-01-01T19:35:59.094Z,1.5
2017-01-01T19:36:39.758Z,1.56
2017-01-01T19:37:20.400Z,1.59
2017-01-01T19:38:01.041Z,1.55
2017-01-01T19:38:41.696Z,1.53
2017-01-01T19:39:22.376Z,1.59
2017-01-01T19:40:02.989Z,1.56
2017-01-01T19:40:43.563Z,1.66
2017-01-01T19:41:24.246Z,1.63
2017-01-01T19:42:04.867Z,1.62
2017-01-01T19:42:45.528Z,1.59
2017-01-01T19:43:26.107Z,1.6
2017-01-01T19:44:06.701Z,1.67
2017-01-01T19:44:47.276Z,1.58
2017-01-01T19:45:27.925Z,1.6
2017-01-01T19:46:08.631Z,1.6
2017-01-01T19:46:49.320Z,1.53
2017-01-01T19:47:29.870Z,1.58
2017-01-01T19:48:10.536Z,1.63
2017-01-01T19:48:51.126Z,1.59
2017-01-01T19:49:31.724Z,1.58
2017-01-01T19:50:12.274Z,1.58
2017-01-01T19:50:52.940Z,1.59
2017-01-01T19:51:33.632Z,1.58
2017-01-01T19:52:14.232Z,1.6
2017-01-01T19:52:54.790Z,1.56
2017-01-01T19:53:35.358Z,1.6
2017-01-01T19:54:15.998Z,1.66
2017-01-01T19:54:56.599Z,1.67
2017-01-01T19:55:37.292Z,1.6
2017-01-01T19:56:17.856Z,1.59
2017-01-01T19:56:58.520Z,1.59
2017-01-01T19:57:39.122Z,1.6
2017-01-01T19:58:19.797Z,1.58
2017-01-01T19:59:00.382Z,1.67
2017-01-01T19:59:41.012Z,1.6
2017-01-01T20:00:21.993Z,1.6
2017-01-01T20:01:02.619Z,1.67
2017-01-01T20:01:43.176Z,1.66
2017-01-01T20:02:23.837Z,1.67
2017-01-01T20:03:04.536Z,1.55
2017-01-01T20:03:45.212Z,1.68
2017-01-01T20:04:25.810Z,1.62
2017-01-01T20:05:06.446Z,1.63
2017-01-01T20:05:47.116Z,1.56
2017-01-01T20:06:27.781Z,1.59
2017-01-01T20:07:08.409Z,1.55
2017-01-01T20:07:48.998Z,1.56
2017-01-01T20:08:29.616Z,1.55
2017-01-01T20:09:10.300Z,1.58
2017-01-01T20:09:50.904Z,1.6
2017-01-01T20:10:31.470Z,1.59
2017-01-01T20:11:12.134Z,1.58
2017-01-01T20:11:52.817Z,1.56
2017-01-01T20:12:38.438Z,1.63
2017-01-01T20:13:19.023Z,1.53
2017-01-01T20:13:59.655Z,1.59
2017-01-01T20:14:40.253Z,1.55
2017-01-01T20:15:20.834Z,1.5
2017-01-01T20:16:01.403Z,1.56
2017-01-01T20:16:42.063Z,1.56
2017-01-01T20:17:22.649Z,1.55
2017-01-01T20:18:03.446Z,1.56
2017-01-01T20:18:44.098Z,1.52
2017-01-01T20:19:24.751Z,1.55
2017-01-01T20:20:05.401Z,1.52
2017-01-01T20:20:46.172Z,1.56
2017-01-01T20:21:26.813Z,1.52
2017-01-01T20:22:07.377Z,1.55
2017-01-01T20:22:48.022Z,1.55
2017-01-01T20:23:28.596Z,1.52
2017-01-01T20:24:09.234Z,1.56
2017-01-01T20:24:49.876Z,1.58
2017-01-01T20:25:30.467Z,1.5
2017-01-01T20:26:11.101Z,1.59
2017-01-01T20:26:51.735Z,1.53
2017-01-01T20:27:32.306Z,1.53
2017-01-01T20:28:12.960Z,1.52
2017-01-01T20:28:53.614Z,1.53
2017-01-01T20:29:34.259Z,1.56
2017-01-01T20:30:14.930Z,1.62
2017-01-01T20:30:55.566Z,1.58
2017-01-01T20:31:36.212Z,1.59
2017-01-01T20:32:16.863Z,1.52
2017-01-01T20:32:57.530Z,1.5
2017-01-01T20:33:38.166Z,1.52
2017-01-01T20:34:18.727Z,1.5
2017-01-01T20:34:59.384Z,1.52
2017-01-01T20:35:40.035Z,1.55
2017-01-01T20:36:20.592Z,1.55
2017-01-01T20:37:02.202Z,1.55
2017-01-01T20:37:42.765Z,1.53
2017-01-01T20:38:23.356Z,1.5
2017-01-01T20:39:03.946Z,1.56
2017-01-01T20:39:44.547Z,1.52
2017-01-01T20:40:25.120Z,1.56
2017-01-01T20:41:05.758Z,1.55
2017-01-01T20:41:46.351Z,1.48
2017-01-01T20:42:26.955Z,1.48
2017-01-01T20:43:07.518Z,1.56
2017-01-01T20:43:48.191Z,1.55
2017-01-01T20:44:28.834Z,1.55
2017-01-01T20:45:09.470Z,1.56
2017-01-01T20:45:50.187Z,1.53
2017-01-01T20:46:30.769Z,1.52
2017-01-01T20:47:11.421Z,1.55
2017-01-01T20:47:52.097Z,1.5
2017-01-01T20:48:32.775Z,1.52
2017-01-01T20:49:13.482Z,1.5
2017-01-01T20:49:54.126Z,1.49
2017-01-01T20:50:34.710Z,1.58
2017-01-01T20:51:15.355Z,1.49
2017-01-01T20:51:55.952Z,1.48
2017-01-01T20:52:36.543Z,1.55
2017-01-01T20:53:17.093Z,1.5
2017-01-01T20:53:57.766Z,1.5
2017-01-01T20:54:38.433Z,1.49
2017-01-01T20:55:19.072Z,1.55
2017-01-01T20:55:59.723Z,1.52
2017-01-01T20:56:40.379Z,1.42
2017-01-01T20:57:21.036Z,1.52
2017-01-01T20:58:01.667Z,1.52
2017-01-01T20:58:42.332Z,1.55
2017-01-01T20:59:22.996Z,1.49
2017-01-01T21:00:03.635Z,1.53
2017-01-01T21:00:44.302Z,1.44
2017-01-01T21:01:24.938Z,1.45
2017-01-01T21:02:05.604Z,1.44
2017-01-01T21:02:46.258Z,1.48
2017-01-01T21:03:26.917Z,1.49
2017-01-01T21:04:08.570Z,1.41
2017-01-01T21:04:49.248Z,1.42
2017-01-01T21:05:29.911Z,1.44
2017-01-01T21:06:10.528Z,1.49
2017-01-01T21:06:51.193Z,1.45
2017-01-01T21:07:31.870Z,1.41
2017-01-01T21:08:12.495Z,1.4
2017-01-01T21:08:53.183Z,1.41
2017-01-01T21:09:33.807Z,1.48
2017-01-01T21:10:14.477Z,1.35
2017-01-01T21:10:55.108Z,1.48
2017-01-01T21:11:35.780Z,1.45
2017-01-01T21:12:17.345Z,1.45
2017-01-01T21:12:58.040Z,1.41
2017-01-01T21:13:38.641Z,1.45
2017-01-01T21:14:19.304Z,1.42
2017-01-01T21:14:59.954Z,1.49
2017-01-01T21:15:40.627Z,1.42
2017-01-01T21:16:21.253Z,1.42
2017-01-01T21:17:01.909Z,1.45
2017-01-01T21:17:42.576Z,1.52
2017-01-01T21:18:23.200Z,1.44
2017-01-01T21:19:03.785Z,1.41
2017-01-01T21:19:44.358Z,1.45
2017-01-01T21:20:25.022Z,1.48
2017-01-01T21:21:05.671Z,1.41
2017-01-01T21:21:46.321Z,1.49
2017-01-01T21:22:26.971Z,1.41
2017-01-01T21:23:07.629Z,1.3
2017-01-01T21:23:48.277Z,1.34
2017-01-01T21:24:28.928Z,1.35
2017-01-01T21:25:09.583Z,1.31
2017-01-01T21:25:50.225Z,1.37
2017-01-01T21:26:30.888Z,1.38
2017-01-01T21:27:11.538Z,1.34
2017-01-01T21:27:52.185Z,1.28
2017-01-01T21:28:32.790Z,1.28
2017-01-01T21:29:13.347Z,1.32
2017-01-01T21:29:54.012Z,1.3
2017-01-01T21:30:34.705Z,1.35
2017-01-01T21:31:15.292Z,1.35
2017-01-01T21:31:55.949Z,1.28
2017-01-01T21:32:36.614Z,1.38
2017-01-01T21:33:17.211Z,1.35
2017-01-01T21:33:57.838Z,1.31
2017-01-01T21:34:38.478Z,1.32
2017-01-01T22:08:04.556Z,1.41
2017-01-01T22:08:45.140Z,1.34
2017-01-01T22:09:25.688Z,1.34
2017-01-01T22:10:07.275Z,1.35
2017-01-01T22:10:47.870Z,1.38
2017-01-01T22:11:28.469Z,1.32
2017-01-01T22:12:09.031Z,1.32
2017-01-01T22:12:49.680Z,1.3
2017-01-01T22:13:30.280Z,1.38
2017-01-01T22:14:10.841Z,1.28
2017-01-01T22:14:51.399Z,1.3
2017-01-01T22:15:31.975Z,1.26
2017-01-01T22:16:12.593Z,1.3
2017-01-01T22:16:53.285Z,1.4
2017-01-01T22:17:33.869Z,1.24
2017-01-01T22:18:14.493Z,1.37
2017-01-01T22:18:55.151Z,1.37
2017-01-01T22:19:35.797Z,1.37
2017-01-01T22:20:16.448Z,1.37
2017-01-01T22:20:57.101Z,1.34
2017-01-01T22:21:37.772Z,1.37
2017-01-01T22:22:18.428Z,1.28
2017-01-01T22:22:59.080Z,1.32
2017-01-01T22:23:40.707Z,1.34
2017-01-01T22:24:21.285Z,1.4
2017-01-01T22:25:01.862Z,1.3
2017-01-01T22:25:42.492Z,1.38
2017-01-01T22:26:23.052Z,1.38
2017-01-01T22:27:03.733Z,1.38
2017-01-01T22:27:44.399Z,1.28
2017-01-01T22:28:24.998Z,1.3
2017-01-01T22:29:05.576Z,1.32
2017-01-01T22:29:46.235Z,1.32
2017-01-01T22:30:26.864Z,1.32
2017-01-01T22:31:07.533Z,1.28
2017-01-01T22:31:48.230Z,1.32
2017-01-01T22:32:28.831Z,1.35
2017-01-01T22:33:09.472Z,1.31
2017-01-01T22:33:50.127Z,1.37
2017-01-01T22:34:30.778Z,1.32
2017-01-01T22:35:11.449Z,1.32
2017-01-01T22:35:52.083Z,1.35
2017-01-01T22:36:32.760Z,1.35
2017-01-01T22:37:13.400Z,1.34
2017-01-01T22:37:55.071Z,1.35
2017-01-01T22:38:35.736Z,1.38
2017-01-01T22:39:16.392Z,1.4
2017-01-01T22:39:57.026Z,1.35
2017-01-01T22:40:37.682Z,1.32
2017-01-01T22:41:18.330Z,1.34
2017-01-01T22:41:58.877Z,1.32
2017-01-01T22:42:39.606Z,1.32
2017-01-01T22:43:20.104Z,1.37
2017-01-01T22:44:00.762Z,1.31
2017-01-01T22:44:41.407Z,1.31
2017-01-01T22:45:22.042Z,1.31
2017-01-01T22:46:02.716Z,1.26
2017-01-01T22:46:43.357Z,1.31
2017-01-01T22:47:24.004Z,1.32
2017-01-01T22:48:04.653Z,1.35
2017-01-01T22:48:45.251Z,1.35
2017-01-01T22:49:25.844Z,1.35
2017-01-01T22:50:06.401Z,1.38
2017-01-01T22:50:47.061Z,1.35
2017-01-01T22:51:27.685Z,1.31
2017-01-01T22:52:08.260Z,1.28
2017-01-01T22:52:48.816Z,1.31
2017-01-01T22:53:29.480Z,1.37
2017-01-01T22:54:10.126Z,1.4
2017-01-01T22:54:50.819Z,1.35
2017-01-01T22:55:31.452Z,1.35
2017-01-01T22:56:12.074Z,1.31
2017-01-01T22:56:52.728Z,1.32
2017-01-01T22:57:33.381Z,1.32
2017-01-01T22:58:14.037Z,1.32
2017-01-01T22:58:54.686Z,1.34
2017-01-01T22:59:35.338Z,1.41
2017-01-01T23:00:15.992Z,1.26
2017-01-01T23:00:56.647Z,1.34
2017-01-01T23:01:37.298Z,1.3
2017-01-01T23:02:17.950Z,1.3
2017-01-01T23:02:58.606Z,1.31